sensor_id;sensor_type;location;lat;lon;timestamp;P1;durP1;ratioP1;P2;durP2;ratioP2
4986;SDS011;12674;51.500;7.552;2023-03-20T00:00:01;38.87;;;24.77;;
4986;SDS011;12674;51.500;7.552;2023-03-20T00:02:05;38.50;;;24.43;;
4986;SDS011;12674;51.500;7.552;2023-03-20T00:04:08;37.03;;;27.00;;
4986;SDS011;12674;51.500;7.552;2023-03-20T00:06:16;37.70;;;28.13;;
4986;SDS011;12674;51.500;7.552;2023-03-20T00:08:19;42.30;;;29.50;;
4986;SDS011;12674;51.500;7.552;2023-03-20T00:10:24;45.43;;;30.70;;
4986;SDS011;12674;51.500;7.552;2023-03-20T00:12:30;48.23;;;31.50;;
4986;SDS011;12674;51.500;7.552;2023-03-20T00:14:33;40.37;;;30.10;;
4986;SDS011;12674;51.500;7.552;2023-03-20T00:16:37;41.70;;;28.13;;
4986;SDS011;12674;51.500;7.552;2023-03-20T00:18:41;47.00;;;30.40;;
4986;SDS011;12674;51.500;7.552;2023-03-20T00:20:44;51.33;;;30.17;;
4986;SDS011;12674;51.500;7.552;2023-03-20T00:22:48;47.97;;;31.90;;
4986;SDS011;12674;51.500;7.552;2023-03-20T00:24:52;45.03;;;29.33;;
4986;SDS011;12674;51.500;7.552;2023-03-20T00:26:56;42.73;;;28.77;;
4986;SDS011;12674;51.500;7.552;2023-03-20T00:29:02;38.90;;;25.43;;
4986;SDS011;12674;51.500;7.552;2023-03-20T00:31:10;41.63;;;26.87;;
4986;SDS011;12674;51.500;7.552;2023-03-20T00:33:17;40.67;;;26.10;;
4986;SDS011;12674;51.500;7.552;2023-03-20T00:35:21;40.10;;;25.90;;
4986;SDS011;12674;51.500;7.552;2023-03-20T00:37:26;36.40;;;23.97;;
4986;SDS011;12674;51.500;7.552;2023-03-20T00:39:31;40.50;;;25.23;;
4986;SDS011;12674;51.500;7.552;2023-03-20T00:41:36;32.73;;;23.50;;
4986;SDS011;12674;51.500;7.552;2023-03-20T00:43:43;44.17;;;25.40;;
4986;SDS011;12674;51.500;7.552;2023-03-20T00:45:49;40.40;;;26.30;;
4986;SDS011;12674;51.500;7.552;2023-03-20T00:47:53;40.30;;;28.90;;
4986;SDS011;12674;51.500;7.552;2023-03-20T00:49:56;45.20;;;28.83;;
4986;SDS011;12674;51.500;7.552;2023-03-20T00:52:00;48.73;;;29.97;;
4986;SDS011;12674;51.500;7.552;2023-03-20T00:54:04;43.47;;;29.23;;
4986;SDS011;12674;51.500;7.552;2023-03-20T00:56:11;47.63;;;29.17;;
4986;SDS011;12674;51.500;7.552;2023-03-20T00:58:29;55.67;;;31.27;;
4986;SDS011;12674;51.500;7.552;2023-03-20T01:00:35;45.20;;;29.80;;
4986;SDS011;12674;51.500;7.552;2023-03-20T01:02:41;43.17;;;30.40;;
4986;SDS011;12674;51.500;7.552;2023-03-20T01:04:44;47.60;;;29.90;;
4986;SDS011;12674;51.500;7.552;2023-03-20T01:06:49;41.07;;;30.60;;
4986;SDS011;12674;51.500;7.552;2023-03-20T01:08:53;45.83;;;27.90;;
4986;SDS011;12674;51.500;7.552;2023-03-20T01:10:59;41.07;;;26.93;;
4986;SDS011;12674;51.500;7.552;2023-03-20T01:13:02;37.03;;;28.00;;
4986;SDS011;12674;51.500;7.552;2023-03-20T01:15:08;43.00;;;28.37;;
4986;SDS011;12674;51.500;7.552;2023-03-20T01:17:17;39.60;;;27.70;;
4986;SDS011;12674;51.500;7.552;2023-03-20T01:19:23;41.00;;;28.37;;
4986;SDS011;12674;51.500;7.552;2023-03-20T01:21:26;39.90;;;27.50;;
4986;SDS011;12674;51.500;7.552;2023-03-20T01:23:30;39.57;;;28.00;;
4986;SDS011;12674;51.500;7.552;2023-03-20T01:25:33;42.30;;;28.10;;
4986;SDS011;12674;51.500;7.552;2023-03-20T01:27:36;38.57;;;27.73;;
4986;SDS011;12674;51.500;7.552;2023-03-20T01:29:40;38.97;;;26.40;;
4986;SDS011;12674;51.500;7.552;2023-03-20T01:31:43;37.10;;;25.50;;
4986;SDS011;12674;51.500;7.552;2023-03-20T01:33:46;37.00;;;25.63;;
4986;SDS011;12674;51.500;7.552;2023-03-20T01:35:51;34.50;;;22.53;;
4986;SDS011;12674;51.500;7.552;2023-03-20T01:37:54;32.37;;;23.43;;
4986;SDS011;12674;51.500;7.552;2023-03-20T01:39:58;33.23;;;22.47;;
4986;SDS011;12674;51.500;7.552;2023-03-20T01:42:02;32.60;;;23.30;;
4986;SDS011;12674;51.500;7.552;2023-03-20T01:44:14;33.57;;;22.93;;
4986;SDS011;12674;51.500;7.552;2023-03-20T01:46:29;36.43;;;25.70;;
4986;SDS011;12674;51.500;7.552;2023-03-20T01:48:55;35.80;;;25.73;;
4986;SDS011;12674;51.500;7.552;2023-03-20T01:51:02;37.37;;;26.80;;
4986;SDS011;12674;51.500;7.552;2023-03-20T01:53:09;41.30;;;26.87;;
4986;SDS011;12674;51.500;7.552;2023-03-20T01:55:20;41.47;;;27.80;;
4986;SDS011;12674;51.500;7.552;2023-03-20T01:57:30;41.90;;;26.80;;
4986;SDS011;12674;51.500;7.552;2023-03-20T01:59:33;42.43;;;27.10;;
4986;SDS011;12674;51.500;7.552;2023-03-20T02:01:38;44.93;;;28.77;;
4986;SDS011;12674;51.500;7.552;2023-03-20T02:03:44;41.63;;;27.70;;
4986;SDS011;12674;51.500;7.552;2023-03-20T02:06:11;37.40;;;27.30;;
4986;SDS011;12674;51.500;7.552;2023-03-20T02:08:33;37.43;;;27.37;;
4986;SDS011;12674;51.500;7.552;2023-03-20T02:10:38;35.93;;;26.03;;
4986;SDS011;12674;51.500;7.552;2023-03-20T02:12:51;38.40;;;26.50;;
4986;SDS011;12674;51.500;7.552;2023-03-20T02:15:04;34.47;;;25.43;;
4986;SDS011;12674;51.500;7.552;2023-03-20T02:17:31;34.73;;;25.70;;
4986;SDS011;12674;51.500;7.552;2023-03-20T02:19:41;35.90;;;24.80;;
4986;SDS011;12674;51.500;7.552;2023-03-20T02:22:09;30.93;;;22.40;;
4986;SDS011;12674;51.500;7.552;2023-03-20T02:26:56;29.30;;;21.40;;
4986;SDS011;12674;51.500;7.552;2023-03-20T02:29:20;33.70;;;22.03;;
4986;SDS011;12674;51.500;7.552;2023-03-20T02:34:40;30.90;;;22.37;;
4986;SDS011;12674;51.500;7.552;2023-03-20T02:37:24;30.43;;;21.27;;
4986;SDS011;12674;51.500;7.552;2023-03-20T02:39:49;30.77;;;20.90;;
4986;SDS011;12674;51.500;7.552;2023-03-20T02:41:58;35.57;;;20.87;;
4986;SDS011;12674;51.500;7.552;2023-03-20T02:44:04;33.80;;;22.07;;
4986;SDS011;12674;51.500;7.552;2023-03-20T02:46:10;36.20;;;22.07;;
4986;SDS011;12674;51.500;7.552;2023-03-20T02:48:20;32.87;;;23.10;;
4986;SDS011;12674;51.500;7.552;2023-03-20T02:50:31;31.33;;;20.53;;
4986;SDS011;12674;51.500;7.552;2023-03-20T02:52:41;37.10;;;22.37;;
4986;SDS011;12674;51.500;7.552;2023-03-20T02:54:50;37.60;;;22.60;;
4986;SDS011;12674;51.500;7.552;2023-03-20T02:56:58;41.17;;;23.00;;
4986;SDS011;12674;51.500;7.552;2023-03-20T02:59:05;36.53;;;21.73;;
4986;SDS011;12674;51.500;7.552;2023-03-20T03:01:14;33.80;;;22.03;;
4986;SDS011;12674;51.500;7.552;2023-03-20T03:03:19;32.57;;;20.57;;
4986;SDS011;12674;51.500;7.552;2023-03-20T03:05:26;33.03;;;21.57;;
4986;SDS011;12674;51.500;7.552;2023-03-20T03:07:33;34.47;;;21.20;;
4986;SDS011;12674;51.500;7.552;2023-03-20T03:09:39;33.40;;;21.00;;
4986;SDS011;12674;51.500;7.552;2023-03-20T03:11:47;34.60;;;21.87;;
4986;SDS011;12674;51.500;7.552;2023-03-20T03:13:53;36.90;;;20.70;;
4986;SDS011;12674;51.500;7.552;2023-03-20T03:15:58;30.63;;;18.67;;
4986;SDS011;12674;51.500;7.552;2023-03-20T03:18:04;26.90;;;17.63;;
4986;SDS011;12674;51.500;7.552;2023-03-20T03:20:12;29.63;;;18.93;;
4986;SDS011;12674;51.500;7.552;2023-03-20T03:22:19;30.83;;;17.63;;
4986;SDS011;12674;51.500;7.552;2023-03-20T03:24:26;26.70;;;16.10;;
4986;SDS011;12674;51.500;7.552;2023-03-20T03:26:44;23.00;;;14.37;;
4986;SDS011;12674;51.500;7.552;2023-03-20T03:28:48;23.83;;;14.60;;
4986;SDS011;12674;51.500;7.552;2023-03-20T03:30:53;24.40;;;14.53;;
4986;SDS011;12674;51.500;7.552;2023-03-20T03:33:02;22.97;;;15.70;;
4986;SDS011;12674;51.500;7.552;2023-03-20T03:35:15;18.67;;;13.97;;
4986;SDS011;12674;51.500;7.552;2023-03-20T03:37:22;17.60;;;12.50;;
4986;SDS011;12674;51.500;7.552;2023-03-20T03:39:30;24.57;;;13.17;;
4986;SDS011;12674;51.500;7.552;2023-03-20T03:41:39;20.80;;;12.10;;
4986;SDS011;12674;51.500;7.552;2023-03-20T03:43:48;19.23;;;12.43;;
4986;SDS011;12674;51.500;7.552;2023-03-20T03:45:55;16.97;;;12.70;;
4986;SDS011;12674;51.500;7.552;2023-03-20T03:48:02;14.57;;;11.03;;
4986;SDS011;12674;51.500;7.552;2023-03-20T03:50:10;14.10;;;10.27;;
4986;SDS011;12674;51.500;7.552;2023-03-20T03:52:17;16.47;;;9.87;;
4986;SDS011;12674;51.500;7.552;2023-03-20T03:54:23;13.23;;;9.70;;
4986;SDS011;12674;51.500;7.552;2023-03-20T03:56:47;12.80;;;8.60;;
4986;SDS011;12674;51.500;7.552;2023-03-20T03:58:53;15.63;;;9.20;;
4986;SDS011;12674;51.500;7.552;2023-03-20T04:00:58;9.20;;;7.70;;
4986;SDS011;12674;51.500;7.552;2023-03-20T04:03:02;9.60;;;7.50;;
4986;SDS011;12674;51.500;7.552;2023-03-20T04:05:07;10.37;;;7.50;;
4986;SDS011;12674;51.500;7.552;2023-03-20T04:07:12;12.53;;;7.60;;
4986;SDS011;12674;51.500;7.552;2023-03-20T04:09:15;10.07;;;7.10;;
4986;SDS011;12674;51.500;7.552;2023-03-20T04:11:20;10.40;;;7.27;;
4986;SDS011;12674;51.500;7.552;2023-03-20T04:13:24;11.60;;;7.70;;
4986;SDS011;12674;51.500;7.552;2023-03-20T04:15:28;10.43;;;7.30;;
4986;SDS011;12674;51.500;7.552;2023-03-20T04:17:32;8.13;;;7.30;;
4986;SDS011;12674;51.500;7.552;2023-03-20T04:19:35;11.20;;;6.97;;
4986;SDS011;12674;51.500;7.552;2023-03-20T04:21:38;14.10;;;8.10;;
4986;SDS011;12674;51.500;7.552;2023-03-20T04:23:42;12.17;;;8.00;;
4986;SDS011;12674;51.500;7.552;2023-03-20T04:25:45;10.60;;;7.90;;
4986;SDS011;12674;51.500;7.552;2023-03-20T04:27:49;10.70;;;8.07;;
4986;SDS011;12674;51.500;7.552;2023-03-20T04:30:12;14.47;;;8.70;;
4986;SDS011;12674;51.500;7.552;2023-03-20T04:32:36;10.93;;;8.20;;
4986;SDS011;12674;51.500;7.552;2023-03-20T04:34:49;12.77;;;9.57;;
4986;SDS011;12674;51.500;7.552;2023-03-20T04:37:21;12.90;;;9.30;;
4986;SDS011;12674;51.500;7.552;2023-03-20T04:39:33;15.63;;;9.57;;
4986;SDS011;12674;51.500;7.552;2023-03-20T04:41:37;15.13;;;10.10;;
4986;SDS011;12674;51.500;7.552;2023-03-20T04:43:40;16.17;;;9.23;;
4986;SDS011;12674;51.500;7.552;2023-03-20T04:45:43;15.17;;;9.83;;
4986;SDS011;12674;51.500;7.552;2023-03-20T04:47:48;11.37;;;8.67;;
4986;SDS011;12674;51.500;7.552;2023-03-20T04:49:54;11.17;;;8.63;;
4986;SDS011;12674;51.500;7.552;2023-03-20T04:51:57;12.73;;;9.07;;
4986;SDS011;12674;51.500;7.552;2023-03-20T04:54:10;11.80;;;9.23;;
4986;SDS011;12674;51.500;7.552;2023-03-20T04:56:16;16.97;;;9.33;;
4986;SDS011;12674;51.500;7.552;2023-03-20T04:58:22;12.60;;;9.77;;
4986;SDS011;12674;51.500;7.552;2023-03-20T05:00:26;14.47;;;10.20;;
4986;SDS011;12674;51.500;7.552;2023-03-20T05:02:28;13.93;;;9.70;;
4986;SDS011;12674;51.500;7.552;2023-03-20T05:04:33;13.60;;;10.30;;
4986;SDS011;12674;51.500;7.552;2023-03-20T05:06:36;15.93;;;10.37;;
4986;SDS011;12674;51.500;7.552;2023-03-20T05:08:40;14.90;;;10.37;;
4986;SDS011;12674;51.500;7.552;2023-03-20T05:10:43;16.73;;;11.50;;
4986;SDS011;12674;51.500;7.552;2023-03-20T05:13:12;15.70;;;11.53;;
4986;SDS011;12674;51.500;7.552;2023-03-20T05:15:47;21.33;;;11.67;;
4986;SDS011;12674;51.500;7.552;2023-03-20T05:21:45;20.67;;;12.20;;
4986;SDS011;12674;51.500;7.552;2023-03-20T05:24:20;17.70;;;12.63;;
4986;SDS011;12674;51.500;7.552;2023-03-20T05:26:39;18.33;;;12.87;;
4986;SDS011;12674;51.500;7.552;2023-03-20T05:28:48;17.07;;;12.33;;
4986;SDS011;12674;51.500;7.552;2023-03-20T05:31:11;16.57;;;12.03;;
4986;SDS011;12674;51.500;7.552;2023-03-20T05:33:43;20.37;;;13.40;;
4986;SDS011;12674;51.500;7.552;2023-03-20T05:35:53;21.43;;;12.30;;
4986;SDS011;12674;51.500;7.552;2023-03-20T05:38:27;17.03;;;11.63;;
4986;SDS011;12674;51.500;7.552;2023-03-20T05:40:56;16.30;;;12.90;;
4986;SDS011;12674;51.500;7.552;2023-03-20T05:43:38;16.87;;;12.57;;
4986;SDS011;12674;51.500;7.552;2023-03-20T05:45:54;18.93;;;12.40;;
4986;SDS011;12674;51.500;7.552;2023-03-20T05:48:03;20.07;;;11.23;;
4986;SDS011;12674;51.500;7.552;2023-03-20T05:50:30;19.63;;;13.73;;
4986;SDS011;12674;51.500;7.552;2023-03-20T05:52:59;18.53;;;13.33;;
4986;SDS011;12674;51.500;7.552;2023-03-20T05:55:33;17.63;;;11.90;;
4986;SDS011;12674;51.500;7.552;2023-03-20T05:58:00;20.90;;;13.90;;
4986;SDS011;12674;51.500;7.552;2023-03-20T06:00:24;20.90;;;13.60;;
4986;SDS011;12674;51.500;7.552;2023-03-20T06:02:48;22.53;;;14.53;;
4986;SDS011;12674;51.500;7.552;2023-03-20T06:05:20;19.77;;;13.90;;
4986;SDS011;12674;51.500;7.552;2023-03-20T06:07:26;21.37;;;14.97;;
4986;SDS011;12674;51.500;7.552;2023-03-20T06:09:34;21.93;;;13.53;;
4986;SDS011;12674;51.500;7.552;2023-03-20T06:11:43;19.70;;;13.00;;
4986;SDS011;12674;51.500;7.552;2023-03-20T06:13:49;23.13;;;14.67;;
4986;SDS011;12674;51.500;7.552;2023-03-20T06:15:55;19.73;;;13.70;;
4986;SDS011;12674;51.500;7.552;2023-03-20T06:17:58;18.53;;;13.23;;
4986;SDS011;12674;51.500;7.552;2023-03-20T06:20:01;21.03;;;13.67;;
4986;SDS011;12674;51.500;7.552;2023-03-20T06:22:07;18.70;;;12.90;;
4986;SDS011;12674;51.500;7.552;2023-03-20T06:24:10;17.67;;;13.27;;
4986;SDS011;12674;51.500;7.552;2023-03-20T06:26:13;21.40;;;12.67;;
4986;SDS011;12674;51.500;7.552;2023-03-20T06:28:29;19.90;;;13.50;;
4986;SDS011;12674;51.500;7.552;2023-03-20T06:30:38;20.87;;;14.27;;
4986;SDS011;12674;51.500;7.552;2023-03-20T06:32:47;22.50;;;13.50;;
4986;SDS011;12674;51.500;7.552;2023-03-20T06:34:52;22.93;;;12.67;;
4986;SDS011;12674;51.500;7.552;2023-03-20T06:36:55;22.30;;;14.20;;
4986;SDS011;12674;51.500;7.552;2023-03-20T06:38:58;22.03;;;13.93;;
4986;SDS011;12674;51.500;7.552;2023-03-20T06:41:02;23.00;;;14.53;;
4986;SDS011;12674;51.500;7.552;2023-03-20T06:43:06;19.37;;;13.53;;
4986;SDS011;12674;51.500;7.552;2023-03-20T06:45:19;19.60;;;13.80;;
4986;SDS011;12674;51.500;7.552;2023-03-20T06:47:38;22.53;;;13.50;;
4986;SDS011;12674;51.500;7.552;2023-03-20T06:49:42;16.60;;;12.80;;
4986;SDS011;12674;51.500;7.552;2023-03-20T06:51:53;21.53;;;13.43;;
4986;SDS011;12674;51.500;7.552;2023-03-20T06:53:58;22.30;;;14.17;;
4986;SDS011;12674;51.500;7.552;2023-03-20T06:56:01;20.40;;;13.23;;
4986;SDS011;12674;51.500;7.552;2023-03-20T06:58:04;22.40;;;14.47;;
4986;SDS011;12674;51.500;7.552;2023-03-20T07:00:09;20.30;;;13.60;;
4986;SDS011;12674;51.500;7.552;2023-03-20T07:02:14;21.90;;;13.37;;
4986;SDS011;12674;51.500;7.552;2023-03-20T07:04:18;21.47;;;13.47;;
4986;SDS011;12674;51.500;7.552;2023-03-20T07:06:25;23.73;;;12.60;;
4986;SDS011;12674;51.500;7.552;2023-03-20T07:08:28;20.00;;;13.40;;
4986;SDS011;12674;51.500;7.552;2023-03-20T07:10:35;17.60;;;13.70;;
4986;SDS011;12674;51.500;7.552;2023-03-20T07:12:39;22.30;;;11.53;;
4986;SDS011;12674;51.500;7.552;2023-03-20T07:14:42;18.73;;;12.63;;
4986;SDS011;12674;51.500;7.552;2023-03-20T07:16:50;17.63;;;12.60;;
4986;SDS011;12674;51.500;7.552;2023-03-20T07:18:56;14.00;;;10.13;;
4986;SDS011;12674;51.500;7.552;2023-03-20T07:21:00;20.00;;;10.47;;
4986;SDS011;12674;51.500;7.552;2023-03-20T07:23:05;19.93;;;12.00;;
4986;SDS011;12674;51.500;7.552;2023-03-20T07:25:09;15.43;;;10.93;;
4986;SDS011;12674;51.500;7.552;2023-03-20T07:27:12;15.57;;;9.80;;
4986;SDS011;12674;51.500;7.552;2023-03-20T07:29:16;14.27;;;9.87;;
4986;SDS011;12674;51.500;7.552;2023-03-20T07:31:19;15.03;;;9.50;;
4986;SDS011;12674;51.500;7.552;2023-03-20T07:33:28;12.83;;;8.97;;
4986;SDS011;12674;51.500;7.552;2023-03-20T07:35:34;13.40;;;9.80;;
4986;SDS011;12674;51.500;7.552;2023-03-20T07:37:37;13.07;;;9.87;;
4986;SDS011;12674;51.500;7.552;2023-03-20T07:39:40;13.20;;;8.73;;
4986;SDS011;12674;51.500;7.552;2023-03-20T07:42:16;14.40;;;9.50;;
4986;SDS011;12674;51.500;7.552;2023-03-20T07:44:30;14.03;;;9.30;;
4986;SDS011;12674;51.500;7.552;2023-03-20T07:46:34;18.80;;;8.87;;
4986;SDS011;12674;51.500;7.552;2023-03-20T07:48:37;16.53;;;9.00;;
4986;SDS011;12674;51.500;7.552;2023-03-20T07:50:42;11.93;;;8.73;;
4986;SDS011;12674;51.500;7.552;2023-03-20T07:52:45;12.87;;;7.30;;
4986;SDS011;12674;51.500;7.552;2023-03-20T07:54:48;16.27;;;8.70;;
4986;SDS011;12674;51.500;7.552;2023-03-20T07:56:52;13.93;;;8.23;;
4986;SDS011;12674;51.500;7.552;2023-03-20T07:58:55;14.57;;;7.77;;
4986;SDS011;12674;51.500;7.552;2023-03-20T08:00:58;17.90;;;7.70;;
4986;SDS011;12674;51.500;7.552;2023-03-20T08:03:01;10.63;;;6.80;;
4986;SDS011;12674;51.500;7.552;2023-03-20T08:05:06;10.50;;;6.77;;
4986;SDS011;12674;51.500;7.552;2023-03-20T08:07:11;10.40;;;6.07;;
4986;SDS011;12674;51.500;7.552;2023-03-20T08:09:14;10.53;;;6.63;;
4986;SDS011;12674;51.500;7.552;2023-03-20T08:11:18;10.47;;;6.07;;
4986;SDS011;12674;51.500;7.552;2023-03-20T08:13:21;8.70;;;5.30;;
4986;SDS011;12674;51.500;7.552;2023-03-20T08:15:24;10.13;;;5.60;;
4986;SDS011;12674;51.500;7.552;2023-03-20T08:17:27;9.83;;;5.60;;
4986;SDS011;12674;51.500;7.552;2023-03-20T08:19:30;9.70;;;4.93;;
4986;SDS011;12674;51.500;7.552;2023-03-20T08:21:33;11.13;;;5.83;;
4986;SDS011;12674;51.500;7.552;2023-03-20T08:23:38;8.83;;;5.33;;
4986;SDS011;12674;51.500;7.552;2023-03-20T08:25:41;7.30;;;5.47;;
4986;SDS011;12674;51.500;7.552;2023-03-20T08:27:49;11.90;;;5.50;;
4986;SDS011;12674;51.500;7.552;2023-03-20T08:29:52;13.77;;;5.70;;
4986;SDS011;12674;51.500;7.552;2023-03-20T08:31:55;9.30;;;5.47;;
4986;SDS011;12674;51.500;7.552;2023-03-20T08:33:59;9.83;;;5.30;;
4986;SDS011;12674;51.500;7.552;2023-03-20T08:36:02;12.20;;;6.07;;
4986;SDS011;12674;51.500;7.552;2023-03-20T08:38:06;17.63;;;5.47;;
4986;SDS011;12674;51.500;7.552;2023-03-20T08:40:12;6.80;;;4.80;;
4986;SDS011;12674;51.500;7.552;2023-03-20T08:42:15;10.77;;;5.63;;
4986;SDS011;12674;51.500;7.552;2023-03-20T08:44:18;10.97;;;5.23;;
4986;SDS011;12674;51.500;7.552;2023-03-20T08:46:21;11.70;;;5.73;;
4986;SDS011;12674;51.500;7.552;2023-03-20T08:48:24;10.03;;;5.70;;
4986;SDS011;12674;51.500;7.552;2023-03-20T08:50:27;11.53;;;5.73;;
4986;SDS011;12674;51.500;7.552;2023-03-20T08:52:30;12.97;;;5.43;;
4986;SDS011;12674;51.500;7.552;2023-03-20T08:54:33;10.97;;;6.60;;
4986;SDS011;12674;51.500;7.552;2023-03-20T08:56:38;12.60;;;5.13;;
4986;SDS011;12674;51.500;7.552;2023-03-20T08:58:41;13.10;;;5.30;;
4986;SDS011;12674;51.500;7.552;2023-03-20T09:00:44;12.77;;;5.03;;
4986;SDS011;12674;51.500;7.552;2023-03-20T09:02:47;12.93;;;5.50;;
4986;SDS011;12674;51.500;7.552;2023-03-20T09:04:50;14.50;;;5.97;;
4986;SDS011;12674;51.500;7.552;2023-03-20T09:06:53;12.63;;;5.20;;
4986;SDS011;12674;51.500;7.552;2023-03-20T09:08:56;10.13;;;6.10;;
4986;SDS011;12674;51.500;7.552;2023-03-20T09:11:00;11.53;;;6.50;;
4986;SDS011;12674;51.500;7.552;2023-03-20T09:13:04;17.17;;;6.93;;
4986;SDS011;12674;51.500;7.552;2023-03-20T09:15:26;9.60;;;6.20;;
4986;SDS011;12674;51.500;7.552;2023-03-20T09:17:30;13.93;;;7.00;;
4986;SDS011;12674;51.500;7.552;2023-03-20T09:19:33;9.83;;;5.70;;
4986;SDS011;12674;51.500;7.552;2023-03-20T09:21:39;13.63;;;7.17;;
4986;SDS011;12674;51.500;7.552;2023-03-20T09:23:42;7.53;;;5.97;;
4986;SDS011;12674;51.500;7.552;2023-03-20T09:25:46;14.50;;;6.80;;
4986;SDS011;12674;51.500;7.552;2023-03-20T09:27:50;13.23;;;6.90;;
4986;SDS011;12674;51.500;7.552;2023-03-20T09:29:56;12.07;;;6.90;;
4986;SDS011;12674;51.500;7.552;2023-03-20T09:31:59;10.03;;;6.93;;
4986;SDS011;12674;51.500;7.552;2023-03-20T09:34:02;16.20;;;6.90;;
4986;SDS011;12674;51.500;7.552;2023-03-20T09:36:06;14.17;;;6.77;;
4986;SDS011;12674;51.500;7.552;2023-03-20T09:38:12;18.37;;;6.83;;
4986;SDS011;12674;51.500;7.552;2023-03-20T09:42:41;12.03;;;6.50;;
4986;SDS011;12674;51.500;7.552;2023-03-20T09:44:50;14.17;;;6.53;;
4986;SDS011;12674;51.500;7.552;2023-03-20T09:47:02;13.40;;;7.07;;
4986;SDS011;12674;51.500;7.552;2023-03-20T09:49:23;10.37;;;6.47;;
4986;SDS011;12674;51.500;7.552;2023-03-20T09:51:35;16.30;;;7.20;;
4986;SDS011;12674;51.500;7.552;2023-03-20T09:53:40;18.97;;;7.23;;
4986;SDS011;12674;51.500;7.552;2023-03-20T09:55:43;12.77;;;7.10;;
4986;SDS011;12674;51.500;7.552;2023-03-20T09:57:48;14.13;;;6.27;;
4986;SDS011;12674;51.500;7.552;2023-03-20T09:59:53;8.93;;;5.93;;
4986;SDS011;12674;51.500;7.552;2023-03-20T10:02:02;9.43;;;6.13;;
4986;SDS011;12674;51.500;7.552;2023-03-20T10:04:08;10.97;;;6.13;;
4986;SDS011;12674;51.500;7.552;2023-03-20T10:06:12;8.83;;;6.07;;
4986;SDS011;12674;51.500;7.552;2023-03-20T10:08:17;14.93;;;6.40;;
4986;SDS011;12674;51.500;7.552;2023-03-20T10:10:25;24.03;;;7.00;;
4986;SDS011;12674;51.500;7.552;2023-03-20T10:12:39;9.87;;;5.20;;
4986;SDS011;12674;51.500;7.552;2023-03-20T10:14:49;18.03;;;5.90;;
4986;SDS011;12674;51.500;7.552;2023-03-20T10:17:07;16.17;;;5.60;;
4986;SDS011;12674;51.500;7.552;2023-03-20T10:19:23;10.90;;;5.40;;
4986;SDS011;12674;51.500;7.552;2023-03-20T10:21:31;23.20;;;5.83;;
4986;SDS011;12674;51.500;7.552;2023-03-20T10:23:39;10.23;;;5.37;;
4986;SDS011;12674;51.500;7.552;2023-03-20T10:25:46;10.30;;;4.90;;
4986;SDS011;12674;51.500;7.552;2023-03-20T10:27:53;9.73;;;5.23;;
4986;SDS011;12674;51.500;7.552;2023-03-20T10:30:02;9.90;;;5.10;;
4986;SDS011;12674;51.500;7.552;2023-03-20T10:32:19;8.87;;;4.23;;
4986;SDS011;12674;51.500;7.552;2023-03-20T10:34:30;9.10;;;4.60;;
4986;SDS011;12674;51.500;7.552;2023-03-20T10:36:41;11.40;;;4.33;;
4986;SDS011;12674;51.500;7.552;2023-03-20T10:38:51;6.53;;;3.80;;
4986;SDS011;12674;51.500;7.552;2023-03-20T10:40:57;7.47;;;3.40;;
4986;SDS011;12674;51.500;7.552;2023-03-20T10:43:02;9.47;;;3.10;;
4986;SDS011;12674;51.500;7.552;2023-03-20T10:45:13;13.23;;;3.10;;
4986;SDS011;12674;51.500;7.552;2023-03-20T10:47:24;9.70;;;2.97;;
4986;SDS011;12674;51.500;7.552;2023-03-20T10:49:29;5.97;;;3.50;;
4986;SDS011;12674;51.500;7.552;2023-03-20T10:51:36;11.37;;;3.30;;
4986;SDS011;12674;51.500;7.552;2023-03-20T10:53:42;10.40;;;3.50;;
4986;SDS011;12674;51.500;7.552;2023-03-20T10:55:48;7.80;;;3.30;;
4986;SDS011;12674;51.500;7.552;2023-03-20T10:57:52;9.27;;;3.17;;
4986;SDS011;12674;51.500;7.552;2023-03-20T10:59:58;13.13;;;4.33;;
4986;SDS011;12674;51.500;7.552;2023-03-20T11:02:01;8.20;;;3.87;;
4986;SDS011;12674;51.500;7.552;2023-03-20T11:04:08;5.70;;;3.00;;
4986;SDS011;12674;51.500;7.552;2023-03-20T11:06:13;14.13;;;4.67;;
4986;SDS011;12674;51.500;7.552;2023-03-20T11:08:20;11.23;;;4.43;;
4986;SDS011;12674;51.500;7.552;2023-03-20T11:10:25;10.00;;;3.30;;
4986;SDS011;12674;51.500;7.552;2023-03-20T11:12:30;8.23;;;3.90;;
4986;SDS011;12674;51.500;7.552;2023-03-20T11:14:34;8.97;;;3.67;;
4986;SDS011;12674;51.500;7.552;2023-03-20T11:16:39;13.60;;;3.73;;
4986;SDS011;12674;51.500;7.552;2023-03-20T11:18:42;7.70;;;3.23;;
4986;SDS011;12674;51.500;7.552;2023-03-20T11:20:48;10.30;;;3.67;;
4986;SDS011;12674;51.500;7.552;2023-03-20T11:22:56;6.80;;;3.10;;
4986;SDS011;12674;51.500;7.552;2023-03-20T11:25:00;7.20;;;3.40;;
4986;SDS011;12674;51.500;7.552;2023-03-20T11:27:04;9.50;;;3.40;;
4986;SDS011;12674;51.500;7.552;2023-03-20T11:29:11;5.67;;;2.67;;
4986;SDS011;12674;51.500;7.552;2023-03-20T11:31:19;6.50;;;3.47;;
4986;SDS011;12674;51.500;7.552;2023-03-20T11:33:27;9.13;;;3.60;;
4986;SDS011;12674;51.500;7.552;2023-03-20T11:35:30;9.40;;;3.70;;
4986;SDS011;12674;51.500;7.552;2023-03-20T11:37:39;5.80;;;2.80;;
4986;SDS011;12674;51.500;7.552;2023-03-20T11:39:52;12.67;;;3.03;;
4986;SDS011;12674;51.500;7.552;2023-03-20T11:41:56;9.90;;;3.20;;
4986;SDS011;12674;51.500;7.552;2023-03-20T11:44:00;3.10;;;2.20;;
4986;SDS011;12674;51.500;7.552;2023-03-20T11:46:03;6.40;;;2.73;;
4986;SDS011;12674;51.500;7.552;2023-03-20T11:48:13;8.87;;;2.50;;
4986;SDS011;12674;51.500;7.552;2023-03-20T11:50:26;8.17;;;2.37;;
4986;SDS011;12674;51.500;7.552;2023-03-20T11:52:33;8.23;;;2.57;;
4986;SDS011;12674;51.500;7.552;2023-03-20T11:54:38;6.20;;;2.53;;
4986;SDS011;12674;51.500;7.552;2023-03-20T11:56:51;7.80;;;2.40;;
4986;SDS011;12674;51.500;7.552;2023-03-20T11:58:56;4.73;;;1.97;;
4986;SDS011;12674;51.500;7.552;2023-03-20T12:01:00;5.63;;;2.13;;
4986;SDS011;12674;51.500;7.552;2023-03-20T12:03:14;9.90;;;2.33;;
4986;SDS011;12674;51.500;7.552;2023-03-20T12:05:36;3.63;;;2.03;;
4986;SDS011;12674;51.500;7.552;2023-03-20T12:07:40;12.33;;;2.17;;
4986;SDS011;12674;51.500;7.552;2023-03-20T12:09:45;7.03;;;1.83;;
4986;SDS011;12674;51.500;7.552;2023-03-20T12:11:51;3.20;;;1.73;;
4986;SDS011;12674;51.500;7.552;2023-03-20T12:13:55;4.43;;;1.93;;
4986;SDS011;12674;51.500;7.552;2023-03-20T12:16:01;9.67;;;2.47;;
4986;SDS011;12674;51.500;7.552;2023-03-20T12:18:07;3.47;;;1.83;;
4986;SDS011;12674;51.500;7.552;2023-03-20T12:20:18;13.37;;;2.30;;
4986;SDS011;12674;51.500;7.552;2023-03-20T12:22:27;8.03;;;2.30;;
4986;SDS011;12674;51.500;7.552;2023-03-20T12:24:36;7.43;;;2.40;;
4986;SDS011;12674;51.500;7.552;2023-03-20T12:26:43;6.07;;;1.90;;
4986;SDS011;12674;51.500;7.552;2023-03-20T12:28:51;4.90;;;2.37;;
4986;SDS011;12674;51.500;7.552;2023-03-20T12:30:58;7.97;;;2.30;;
4986;SDS011;12674;51.500;7.552;2023-03-20T12:33:06;4.10;;;1.90;;
4986;SDS011;12674;51.500;7.552;2023-03-20T12:35:14;9.57;;;2.10;;
4986;SDS011;12674;51.500;7.552;2023-03-20T12:37:19;9.53;;;2.47;;
4986;SDS011;12674;51.500;7.552;2023-03-20T12:39:23;7.07;;;2.30;;
4986;SDS011;12674;51.500;7.552;2023-03-20T12:41:32;7.90;;;2.70;;
4986;SDS011;12674;51.500;7.552;2023-03-20T12:43:45;8.20;;;2.30;;
4986;SDS011;12674;51.500;7.552;2023-03-20T12:45:55;7.33;;;2.47;;
4986;SDS011;12674;51.500;7.552;2023-03-20T12:48:09;6.43;;;2.83;;
4986;SDS011;12674;51.500;7.552;2023-03-20T12:50:22;9.80;;;3.10;;
4986;SDS011;12674;51.500;7.552;2023-03-20T12:52:31;5.17;;;2.47;;
4986;SDS011;12674;51.500;7.552;2023-03-20T12:54:43;6.40;;;2.43;;
4986;SDS011;12674;51.500;7.552;2023-03-20T12:57:01;6.47;;;2.87;;
4986;SDS011;12674;51.500;7.552;2023-03-20T12:59:16;5.90;;;2.83;;